Time;durP1;ratioP1;P1;durP2;ratioP2;P2;SDS_P1;SDS_P2;PMS_P1;PMS_P2;Temp;Humidity;BMP_temperature;BMP_pressure;BME280_temperature;BME280_humidity;BME280_pressure;Samples;Min_cycle;Max_cycle;Signal;HPM_P1;HPM_P2
2023/11/29 00:02:17;;;;;;;;;;;;;;;-6.13;74.42;99451.00;5062982;28;19975;-73
2023/11/29 00:04:43;;;;;;;;;;;;;;;-6.13;74.00;99448.34;5062609;28;19976;-73
2023/11/29 00:07:09;;;;;;;;;;;;;;;-6.12;74.18;99446.53;5064840;28;19935;-74
2023/11/29 00:09:38;;;;;;;;;;;;;;;-6.08;74.06;99450.47;5064429;28;20497;-74
2023/11/29 00:12:04;;;;;;;;;;;;;;;-6.04;73.71;99457.09;5032190;28;19928;-74
2023/11/29 00:14:30;;;;;;;;;;;;;;;-6.03;73.16;99457.94;5063025;28;20393;-74
2023/11/29 00:16:56;;;;;;;;;;;;;;;-6.05;73.13;99457.31;5058980;28;19939;-74
2023/11/29 00:19:22;;;;;;;;;;;;;;;-6.04;72.95;99456.28;5063169;28;19934;-73
2023/11/29 00:21:48;;;;;;;;;;;;;;;-6.06;73.25;99464.44;5068064;28;20031;-74
2023/11/29 00:24:14;;;;;;;;;;;;;;;-6.07;73.05;99464.63;5059500;28;20023;-75
2023/11/29 00:26:42;;;;;;;;;;;;;;;-6.06;73.27;99460.97;5054942;28;20194;-75
2023/11/29 00:29:07;;;;;;;;;;;;;;;-6.07;73.06;99469.97;5061837;28;19932;-74
2023/11/29 00:31:34;;;;;;;;;;;;;;;-6.10;73.10;99471.13;5060932;28;20319;-74
2023/11/29 00:34:01;;;;;;;;;;;;;;;-6.09;72.99;99458.63;5027083;28;19928;-73
2023/11/29 00:36:27;;;;;;;;;;;;;;;-6.12;73.05;99468.63;5058178;28;19928;-74
2023/11/29 00:38:53;;;;;;;;;;;;;;;-6.09;72.95;99462.13;5060315;28;19943;-73
2023/11/29 00:41:19;;;;;;;;;;;;;;;-6.09;73.23;99463.94;5062312;28;20445;-75
2023/11/29 00:43:46;;;;;;;;;;;;;;;-6.06;72.94;99458.31;5060820;28;19936;-73
2023/11/29 00:46:12;;;;;;;;;;;;;;;-6.04;72.53;99461.63;5059854;28;20333;-74
2023/11/29 00:48:38;;;;;;;;;;;;;;;-6.02;72.06;99467.59;5062411;28;19929;-74
2023/11/29 00:51:06;;;;;;;;;;;;;;;-6.06;72.07;99450.31;5064020;28;19928;-75
2023/11/29 00:53:32;;;;;;;;;;;;;;;-5.95;72.08;99460.53;5066546;28;19928;-75
2023/11/29 00:55:57;;;;;;;;;;;;;;;-5.90;71.96;99470.66;5062227;28;19934;-74
2023/11/29 00:58:25;;;;;;;;;;;;;;;-5.87;71.37;99476.47;5044732;28;19940;-75
2023/11/29 01:00:53;;;;;;;;;;;;;;;-5.88;71.69;99476.63;5044483;28;20251;-75
2023/11/29 01:03:19;;;;;;;;;;;;;;;-5.89;71.36;99473.16;5042613;28;20318;-75
2023/11/29 01:05:45;;;;;;;;;;;;;;;-5.91;71.23;99467.19;5043588;28;19935;-75
2023/11/29 01:08:11;;;;;;;;;;;;;;;-5.91;71.31;99475.16;5064351;28;20026;-75
2023/11/29 01:10:39;;;;;;;;;;;;;;;-5.92;71.69;99480.66;5060916;28;19986;-75
2023/11/29 01:13:05;;;;;;;;;;;;;;;-5.93;71.87;99479.84;5060705;28;19928;-75
2023/11/29 01:15:31;;;;;;;;;;;;;;;-5.90;72.03;99481.31;5059790;28;19951;-75
2023/11/29 01:18:00;;;;;;;;;;;;;;;-5.90;72.17;99475.97;5059560;28;19928;-75
2023/11/29 01:20:26;;;;;;;;;;;;;;;-5.92;72.26;99473.50;5044094;28;20668;-74
2023/11/29 01:22:52;;;;;;;;;;;;;;;-5.88;72.29;99472.16;5062659;28;19936;-75
2023/11/29 01:25:18;;;;;;;;;;;;;;;-5.84;72.59;99473.44;5060935;28;19928;-75
2023/11/29 01:27:44;;;;;;;;;;;;;;;-5.80;72.39;99467.75;5044171;28;19932;-75
2023/11/29 01:30:10;;;;;;;;;;;;;;;-5.84;72.37;99477.97;5059304;28;19928;-76
2023/11/29 01:32:36;;;;;;;;;;;;;;;-5.87;72.48;99484.47;5060690;28;20427;-75
2023/11/29 01:35:04;;;;;;;;;;;;;;;-5.86;72.56;99487.94;5060389;28;19928;-75
2023/11/29 01:37:30;;;;;;;;;;;;;;;-5.91;72.73;99484.97;5061463;28;19996;-74
2023/11/29 01:39:58;;;;;;;;;;;;;;;-5.95;72.81;99492.47;5044147;28;19959;-75
2023/11/29 01:42:23;;;;;;;;;;;;;;;-5.97;73.06;99489.16;5059206;28;19928;-74
2023/11/29 01:44:49;;;;;;;;;;;;;;;-5.94;72.93;99485.34;5061739;28;19982;-75
2023/11/29 01:47:15;;;;;;;;;;;;;;;-5.94;72.89;99493.31;5043135;28;19928;-75
2023/11/29 01:49:41;;;;;;;;;;;;;;;-5.98;72.93;99500.81;5059328;28;19952;-74
2023/11/29 01:52:11;;;;;;;;;;;;;;;-6.08;72.88;99494.94;5043287;28;19934;-75
2023/11/29 01:54:37;;;;;;;;;;;;;;;-6.11;73.11;99496.09;5063157;28;19929;-76
2023/11/29 01:57:04;;;;;;;;;;;;;;;-6.13;72.83;99500.75;5025938;28;19928;-74
2023/11/29 01:59:30;;;;;;;;;;;;;;;-6.16;72.56;99493.94;5059104;28;19928;-74
2023/11/29 02:01:56;;;;;;;;;;;;;;;-6.19;72.65;99496.97;5043197;28;19935;-75
2023/11/29 02:04:21;;;;;;;;;;;;;;;-6.12;72.80;99487.25;5060230;28;19932;-74
2023/11/29 02:06:47;;;;;;;;;;;;;;;-6.15;72.14;99494.78;5058974;28;19928;-74
2023/11/29 02:09:15;;;;;;;;;;;;;;;-6.22;72.37;99492.00;5060621;28;19928;-74
2023/11/29 02:11:44;;;;;;;;;;;;;;;-6.25;72.63;99478.19;5043807;28;19928;-74
2023/11/29 02:14:10;;;;;;;;;;;;;;;-6.23;72.58;99498.31;5058312;28;20023;-74
2023/11/29 02:16:36;;;;;;;;;;;;;;;-6.22;72.71;99497.31;5059007;28;20038;-74
2023/11/29 02:19:02;;;;;;;;;;;;;;;-6.20;72.56;99497.13;5062221;28;19928;-74
2023/11/29 02:21:48;;;;;;;;;;;;;;;-6.14;72.40;99491.94;5042735;28;19929;-74
2023/11/29 02:24:19;;;;;;;;;;;;;;;-6.10;71.96;99492.44;5063173;28;19975;-75
2023/11/29 02:26:47;;;;;;;;;;;;;;;-6.09;71.55;99493.25;5060433;28;20073;-75
2023/11/29 02:29:13;;;;;;;;;;;;;;;-6.08;71.44;99485.09;5043060;28;19928;-75
2023/11/29 02:31:39;;;;;;;;;;;;;;;-6.04;71.69;99488.25;5058699;28;19932;-75
2023/11/29 02:34:05;;;;;;;;;;;;;;;-6.04;70.55;99496.22;5059706;28;19937;-75
2023/11/29 02:36:31;;;;;;;;;;;;;;;-6.07;70.99;99488.59;5062440;28;19936;-74
2023/11/29 02:38:57;;;;;;;;;;;;;;;-6.09;71.07;99496.75;5059557;28;19948;-75
2023/11/29 02:41:23;;;;;;;;;;;;;;;-6.11;70.93;99493.44;5058094;28;19928;-74
2023/11/29 02:43:55;;;;;;;;;;;;;;;-6.12;70.57;99489.94;5062052;28;19956;-74
2023/11/29 02:46:20;;;;;;;;;;;;;;;-6.13;70.82;99496.25;5058656;28;19935;-74
2023/11/29 02:48:46;;;;;;;;;;;;;;;-6.10;70.76;99511.06;5063456;28;19928;-74
2023/11/29 02:51:12;;;;;;;;;;;;;;;-6.06;70.64;99508.91;5045749;28;20345;-74
2023/11/29 02:53:38;;;;;;;;;;;;;;;-6.08;70.04;99503.72;5047196;28;20469;-73
2023/11/29 02:56:07;;;;;;;;;;;;;;;-6.08;69.92;99505.56;5064233;28;19932;-74
2023/11/29 02:58:32;;;;;;;;;;;;;;;-6.09;70.08;99510.06;5060162;28;20151;-73
2023/11/29 03:01:04;;;;;;;;;;;;;;;-6.11;70.04;99493.44;5063462;28;20039;-74
2023/11/29 03:03:29;;;;;;;;;;;;;;;-6.12;70.17;99497.09;5064696;28;20030;-73
2023/11/29 03:05:55;;;;;;;;;;;;;;;-6.08;70.35;99500.25;5065330;28;19946;-74
2023/11/29 03:08:21;;;;;;;;;;;;;;;-6.01;70.46;99502.00;5063759;28;19968;-74
2023/11/29 03:10:47;;;;;;;;;;;;;;;-5.93;70.40;99506.47;5063954;28;19974;-74
2023/11/29 03:13:13;;;;;;;;;;;;;;;-5.94;70.27;99503.97;5065183;28;19928;-74
2023/11/29 03:15:39;;;;;;;;;;;;;;;-5.96;70.45;99503.31;5062738;28;20236;-74
2023/11/29 03:18:07;;;;;;;;;;;;;;;-6.05;70.50;99486.59;5061974;28;20453;-73
2023/11/29 03:20:33;;;;;;;;;;;;;;;-5.95;70.46;99505.78;5064084;28;19929;-73
2023/11/29 03:22:58;;;;;;;;;;;;;;;-5.99;70.43;99499.16;5043991;28;19935;-73
2023/11/29 03:25:24;;;;;;;;;;;;;;;-6.01;70.07;99503.88;5068860;28;19971;-74
2023/11/29 03:27:51;;;;;;;;;;;;;;;-6.08;70.09;99500.25;5063672;28;19973;-74
2023/11/29 03:30:19;;;;;;;;;;;;;;;-6.11;70.02;99501.41;5062835;28;19975;-73
2023/11/29 03:32:45;;;;;;;;;;;;;;;-6.14;70.17;99507.09;5063438;28;19928;-73
2023/11/29 03:35:13;;;;;;;;;;;;;;;-6.14;70.36;99507.91;5065190;28;19955;-74
2023/11/29 03:37:39;;;;;;;;;;;;;;;-6.17;70.61;99502.94;5064817;28;19935;-73
2023/11/29 03:40:06;;;;;;;;;;;;;;;-6.21;70.49;99504.28;5065092;28;20326;-74
2023/11/29 03:42:32;;;;;;;;;;;;;;;-6.22;70.59;99512.44;5045661;28;19932;-73
2023/11/29 03:45:00;;;;;;;;;;;;;;;-6.23;71.00;99505.47;5063733;28;19935;-74
2023/11/29 03:47:27;;;;;;;;;;;;;;;-6.19;71.06;99512.09;5059110;28;19932;-73
2023/11/29 03:49:53;;;;;;;;;;;;;;;-6.17;71.03;99510.09;5063700;28;20361;-72
2023/11/29 03:52:22;;;;;;;;;;;;;;;-6.13;70.95;99506.91;5062827;28;20034;-73
2023/11/29 03:54:48;;;;;;;;;;;;;;;-6.12;71.36;99519.22;5062686;28;19936;-73
2023/11/29 03:57:13;;;;;;;;;;;;;;;-6.12;69.73;99510.41;5062375;28;19974;-74
2023/11/29 03:59:39;;;;;;;;;;;;;;;-6.23;70.46;99516.94;5063290;28;19942;-73
2023/11/29 04:02:05;;;;;;;;;;;;;;;-6.21;70.75;99522.09;5045468;28;19936;-75
2023/11/29 04:04:31;;;;;;;;;;;;;;;-6.22;70.33;99520.44;5045929;28;20034;-74
2023/11/29 04:07:00;;;;;;;;;;;;;;;-6.24;70.47;99523.28;5064890;28;20007;-74
2023/11/29 04:09:28;;;;;;;;;;;;;;;-6.27;70.35;99534.25;5059800;28;19929;-73
2023/11/29 04:11:54;;;;;;;;;;;;;;;-6.34;70.21;99538.59;5031477;28;19929;-75
2023/11/29 04:14:20;;;;;;;;;;;;;;;-6.41;70.28;99549.09;5061029;28;19935;-73
2023/11/29 04:16:45;;;;;;;;;;;;;;;-6.50;70.08;99532.31;5063512;28;20057;-74
2023/11/29 04:19:12;;;;;;;;;;;;;;;-6.49;70.04;99538.47;5045463;28;20030;-74
2023/11/29 04:21:39;;;;;;;;;;;;;;;-6.54;70.56;99544.31;5063012;28;20010;-74
2023/11/29 04:24:05;;;;;;;;;;;;;;;-6.58;70.04;99541.16;5059583;28;19936;-74
2023/11/29 04:26:34;;;;;;;;;;;;;;;-6.53;70.37;99553.09;5058089;28;20429;-74
2023/11/29 04:29:00;;;;;;;;;;;;;;;-6.51;70.05;99551.09;5045576;28;19935;-74
2023/11/29 04:31:29;;;;;;;;;;;;;;;-6.57;69.55;99557.94;5062426;28;20034;-73
2023/11/29 04:33:55;;;;;;;;;;;;;;;-6.67;69.47;99558.13;5061906;28;19929;-74
2023/11/29 04:36:21;;;;;;;;;;;;;;;-6.71;70.00;99562.97;5061423;28;19929;-73
2023/11/29 04:38:48;;;;;;;;;;;;;;;-6.74;70.29;99570.44;5063543;28;19982;-74
2023/11/29 04:41:14;;;;;;;;;;;;;;;-6.71;70.42;99556.78;5041123;28;19942;-74
2023/11/29 04:43:42;;;;;;;;;;;;;;;-6.66;70.12;99574.91;5062995;28;20311;-73
2023/11/29 04:46:09;;;;;;;;;;;;;;;-6.68;70.04;99566.28;5056790;28;19939;-74
2023/11/29 04:48:35;;;;;;;;;;;;;;;-6.70;70.32;99577.91;5062872;28;20134;-74
2023/11/29 04:51:01;;;;;;;;;;;;;;;-6.69;70.28;99576.06;5055786;28;19928;-74
2023/11/29 04:53:28;;;;;;;;;;;;;;;-6.67;70.62;99571.41;5063714;28;20031;-74
2023/11/29 04:55:55;;;;;;;;;;;;;;;-6.62;70.66;99579.75;5063563;28;19951;-74
2023/11/29 04:58:21;;;;;;;;;;;;;;;-6.65;70.70;99574.72;5062223;28;19932;-73
2023/11/29 05:00:49;;;;;;;;;;;;;;;-6.65;70.97;99571.25;5063286;28;20496;-75
2023/11/29 05:03:15;;;;;;;;;;;;;;;-6.75;71.19;99571.44;5061649;28;19929;-74
2023/11/29 05:05:41;;;;;;;;;;;;;;;-6.91;71.80;99567.78;5055986;28;19956;-74
2023/11/29 05:08:07;;;;;;;;;;;;;;;-7.06;72.19;99572.91;5063690;28;19939;-74
2023/11/29 05:10:33;;;;;;;;;;;;;;;-7.14;72.79;99570.28;5061973;28;19928;-74
2023/11/29 05:12:59;;;;;;;;;;;;;;;-7.15;72.50;99568.63;5063453;28;19928;-75
2023/11/29 05:15:25;;;;;;;;;;;;;;;-7.17;72.88;99574.09;5060334;28;19935;-74
2023/11/29 05:17:53;;;;;;;;;;;;;;;-7.12;72.92;99582.38;5043267;28;20392;-74
2023/11/29 05:20:19;;;;;;;;;;;;;;;-7.08;72.88;99582.06;5060922;28;20413;-74
2023/11/29 05:22:45;;;;;;;;;;;;;;;-7.03;72.95;99582.41;5060021;28;19935;-73
2023/11/29 05:25:12;;;;;;;;;;;;;;;-7.04;72.95;99576.25;5054150;28;19933;-74
2023/11/29 05:27:38;;;;;;;;;;;;;;;-7.10;72.97;99576.06;5055987;28;19939;-73
2023/11/29 05:30:05;;;;;;;;;;;;;;;-7.17;73.30;99583.91;5056125;28;20399;-73
2023/11/29 05:32:31;;;;;;;;;;;;;;;-7.24;73.83;99577.56;5054284;28;19939;-74
2023/11/29 05:34:58;;;;;;;;;;;;;;;-7.30;74.25;99585.19;5053523;28;19982;-76
2023/11/29 05:37:24;;;;;;;;;;;;;;;-7.33;74.57;99582.88;5038230;28;20462;-75
2023/11/29 05:39:51;;;;;;;;;;;;;;;-7.33;74.88;99571.41;5041939;28;19928;-76
2023/11/29 05:42:17;;;;;;;;;;;;;;;-7.31;75.17;99572.91;5044624;28;19962;-76
2023/11/29 05:44:43;;;;;;;;;;;;;;;-7.29;75.27;99572.72;5053694;28;19973;-75
2023/11/29 05:47:09;;;;;;;;;;;;;;;-7.30;75.36;99571.91;5059102;28;19928;-76
2023/11/29 05:49:34;;;;;;;;;;;;;;;-7.30;75.58;99563.94;5061394;28;20130;-76
2023/11/29 05:52:03;;;;;;;;;;;;;;;-7.29;75.38;99572.72;5058891;28;20023;-75
2023/11/29 05:54:29;;;;;;;;;;;;;;;-7.29;75.26;99570.06;5056789;28;19928;-75
2023/11/29 05:56:57;;;;;;;;;;;;;;;-7.31;75.14;99558.78;5053877;28;19933;-76
2023/11/29 05:59:23;;;;;;;;;;;;;;;-7.32;74.95;99563.28;5041267;28;19928;-76
2023/11/29 06:01:51;;;;;;;;;;;;;;;-7.30;75.02;99563.94;5065680;28;19938;-72
2023/11/29 06:04:18;;;;;;;;;;;;;;;-7.26;74.94;99559.09;5046595;28;19928;-75
2023/11/29 06:06:43;;;;;;;;;;;;;;;-7.20;74.90;99560.28;5062556;28;19928;-76
2023/11/29 06:09:11;;;;;;;;;;;;;;;-7.14;74.57;99557.78;5060857;28;20488;-75
2023/11/29 06:11:37;;;;;;;;;;;;;;;-7.05;74.18;99550.66;5051042;28;19974;-75
2023/11/29 06:14:03;;;;;;;;;;;;;;;-6.94;73.74;99554.84;5020715;28;20000;-75
2023/11/29 06:16:29;;;;;;;;;;;;;;;-6.83;73.43;99558.97;5052929;28;20663;-75
2023/11/29 06:18:55;;;;;;;;;;;;;;;-6.72;72.85;99563.94;5041868;28;20427;-75
2023/11/29 06:21:21;;;;;;;;;;;;;;;-6.63;72.37;99548.81;5062041;28;19928;-75
2023/11/29 06:23:47;;;;;;;;;;;;;;;-6.52;72.11;99558.28;5044926;28;19928;-75
2023/11/29 06:26:15;;;;;;;;;;;;;;;-6.46;71.86;99557.59;5063799;28;19976;-75
2023/11/29 06:28:42;;;;;;;;;;;;;;;-6.39;71.54;99555.06;5064727;28;19935;-73
2023/11/29 06:31:08;;;;;;;;;;;;;;;-6.36;71.22;99554.72;5054198;28;19933;-73
2023/11/29 06:33:34;;;;;;;;;;;;;;;-6.33;71.12;99559.69;5058578;28;19929;-72
2023/11/29 06:36:01;;;;;;;;;;;;;;;-6.32;71.05;99545.44;5045866;28;19928;-73
2023/11/29 06:38:27;;;;;;;;;;;;;;;-6.29;71.14;99555.72;5040416;28;20434;-73
2023/11/29 06:40:53;;;;;;;;;;;;;;;-6.29;71.20;99550.41;5060587;28;19929;-75
2023/11/29 06:43:20;;;;;;;;;;;;;;;-6.26;71.04;99559.84;5062258;28;19928;-73
2023/11/29 06:45:46;;;;;;;;;;;;;;;-6.21;71.23;99549.53;5069040;28;20045;-73
2023/11/29 06:48:12;;;;;;;;;;;;;;;-6.16;70.77;99567.66;5060078;28;19932;-75
2023/11/29 06:50:38;;;;;;;;;;;;;;;-6.14;70.70;99563.81;5062287;28;19936;-75
2023/11/29 06:53:04;;;;;;;;;;;;;;;-6.09;70.62;99565.13;5064550;28;19975;-75
2023/11/29 06:55:32;;;;;;;;;;;;;;;-6.06;70.31;99568.28;5061593;28;19928;-74
2023/11/29 06:57:58;;;;;;;;;;;;;;;-6.05;69.71;99566.47;5062159;28;19947;-73
2023/11/29 07:00:26;;;;;;;;;;;;;;;-6.04;69.88;99568.94;5050951;28;20062;-73
2023/11/29 07:02:52;;;;;;;;;;;;;;;-5.99;69.71;99561.25;5056630;28;19928;-73
2023/11/29 07:05:18;;;;;;;;;;;;;;;-5.95;69.60;99572.38;5058857;28;20025;-75
2023/11/29 07:07:46;;;;;;;;;;;;;;;-5.92;69.34;99580.03;5070532;28;20031;-75
2023/11/29 07:10:13;;;;;;;;;;;;;;;-5.83;69.47;99559.53;5054918;28;19933;-76
2023/11/29 07:12:39;;;;;;;;;;;;;;;-5.79;69.25;99565.31;5052270;28;19928;-75
2023/11/29 07:15:05;;;;;;;;;;;;;;;-5.78;69.22;99566.97;5059866;28;19928;-75
2023/11/29 07:17:33;;;;;;;;;;;;;;;-5.77;69.19;99569.47;5067723;28;19929;-72
2023/11/29 07:20:00;;;;;;;;;;;;;;;-5.76;69.41;99563.13;5058634;28;19935;-73
2023/11/29 07:22:26;;;;;;;;;;;;;;;-5.70;69.28;99559.78;5063980;28;19928;-75
2023/11/29 07:24:53;;;;;;;;;;;;;;;-5.70;69.46;99567.78;5063779;28;19929;-76
2023/11/29 07:27:19;;;;;;;;;;;;;;;-5.75;69.41;99566.66;5063853;28;20074;-72
2023/11/29 07:29:46;;;;;;;;;;;;;;;-5.75;69.35;99567.44;5028833;28;19928;-72
2023/11/29 07:32:13;;;;;;;;;;;;;;;-5.78;69.40;99562.47;5061224;28;20010;-72
2023/11/29 07:34:44;;;;;;;;;;;;;;;-5.77;69.41;99545.50;5064021;28;20030;-72
2023/11/29 07:37:11;;;;;;;;;;;;;;;-5.74;69.52;99562.97;5066503;28;19929;-73
2023/11/29 07:39:37;;;;;;;;;;;;;;;-5.66;69.64;99568.25;5051544;28;19935;-73
2023/11/29 07:42:04;;;;;;;;;;;;;;;-5.60;69.17;99564.06;5066720;28;19944;-73
2023/11/29 07:44:30;;;;;;;;;;;;;;;-5.53;69.39;99564.19;5068213;28;20345;-75
2023/11/29 07:46:56;;;;;;;;;;;;;;;-5.51;69.73;99559.50;5046837;28;19936;-76
2023/11/29 07:49:22;;;;;;;;;;;;;;;-5.48;69.35;99556.47;5065997;28;19928;-76
2023/11/29 07:51:50;;;;;;;;;;;;;;;-5.55;69.49;99549.22;5052876;28;20315;-72
2023/11/29 07:54:16;;;;;;;;;;;;;;;-5.56;69.47;99557.38;5068863;28;20346;-72
2023/11/29 07:56:43;;;;;;;;;;;;;;;-5.56;69.58;99552.88;5068769;28;19934;-73
2023/11/29 07:59:09;;;;;;;;;;;;;;;-5.54;69.83;99547.38;5048830;28;19928;-72
2023/11/29 08:01:35;;;;;;;;;;;;;;;-5.52;69.75;99547.19;5066706;28;19928;-73
2023/11/29 08:04:01;;;;;;;;;;;;;;;-5.55;70.04;99538.53;5066096;28;19936;-72
2023/11/29 08:06:28;;;;;;;;;;;;;;;-5.50;70.13;99545.19;5067005;28;20437;-73
2023/11/29 08:08:55;;;;;;;;;;;;;;;-5.46;70.00;99539.31;5067076;28;19935;-73
2023/11/29 08:11:21;;;;;;;;;;;;;;;-5.48;69.96;99535.16;5048359;28;20383;-73
2023/11/29 08:13:47;;;;;;;;;;;;;;;-5.48;70.40;99533.34;5063641;28;19981;-72
2023/11/29 08:16:14;;;;;;;;;;;;;;;-5.43;70.53;99530.16;5046928;28;19974;-73
2023/11/29 08:18:41;;;;;;;;;;;;;;;-5.36;70.43;99524.94;5065897;28;19935;-72
2023/11/29 08:21:08;;;;;;;;;;;;;;;-5.35;70.22;99522.09;5050450;28;19939;-76
2023/11/29 08:23:34;;;;;;;;;;;;;;;-5.37;70.37;99523.28;5046955;28;20222;-73
2023/11/29 08:26:02;;;;;;;;;;;;;;;-5.41;70.65;99517.47;5064318;28;20028;-73
2023/11/29 08:28:28;;;;;;;;;;;;;;;-5.37;70.71;99509.97;5048190;28;19933;-72
2023/11/29 08:30:54;;;;;;;;;;;;;;;-5.35;70.80;99518.59;5064609;28;19935;-73
2023/11/29 08:33:20;;;;;;;;;;;;;;;-5.35;70.72;99507.94;5066093;28;19935;-73
2023/11/29 08:35:46;;;;;;;;;;;;;;;-5.33;70.91;99509.41;5068041;28;19974;-72
2023/11/29 08:38:12;;;;;;;;;;;;;;;-5.27;70.75;99507.88;5049628;28;19932;-73
2023/11/29 08:40:38;;;;;;;;;;;;;;;-5.19;70.69;99506.97;5067540;28;19936;-75
2023/11/29 08:43:06;;;;;;;;;;;;;;;-5.19;70.63;99515.81;5069933;28;20023;-73
2023/11/29 08:45:32;;;;;;;;;;;;;;;-5.21;70.48;99509.00;5066239;28;20045;-72
2023/11/29 08:47:58;;;;;;;;;;;;;;;-5.23;70.91;99492.34;5050239;28;19963;-76
2023/11/29 08:50:24;;;;;;;;;;;;;;;-5.23;71.32;99500.34;5067848;28;20188;-76
2023/11/29 08:52:51;;;;;;;;;;;;;;;-5.29;71.58;99501.88;5068501;28;19936;-76
2023/11/29 08:55:17;;;;;;;;;;;;;;;-5.36;71.90;99500.97;5049637;28;20030;-77
2023/11/29 08:57:43;;;;;;;;;;;;;;;-5.38;72.06;99503.78;5065472;28;19928;-76
2023/11/29 09:00:11;;;;;;;;;;;;;;;-5.44;72.06;99504.50;5047911;28;19959;-76
2023/11/29 09:02:37;;;;;;;;;;;;;;;-5.47;72.22;99494.19;5067569;28;19929;-72
2023/11/29 09:05:04;;;;;;;;;;;;;;;-5.43;72.39;99495.50;5048955;28;19928;-76
2023/11/29 09:07:30;;;;;;;;;;;;;;;-5.42;72.20;99486.50;5044524;28;19962;-75
2023/11/29 09:09:58;;;;;;;;;;;;;;;-5.44;72.45;99481.34;5044803;28;20434;-76
2023/11/29 09:12:25;;;;;;;;;;;;;;;-5.41;72.49;99480.97;5066903;28;20427;-72
2023/11/29 09:14:53;;;;;;;;;;;;;;;-5.39;72.59;99475.47;5066014;28;19972;-76
2023/11/29 09:17:22;;;;;;;;;;;;;;;-5.37;72.54;99476.13;5066740;28;19982;-76
2023/11/29 09:19:48;;;;;;;;;;;;;;;-5.39;72.90;99480.81;5067027;28;19932;-76
2023/11/29 09:22:14;;;;;;;;;;;;;;;-5.36;73.03;99477.78;5067579;28;20480;-72
2023/11/29 09:24:40;;;;;;;;;;;;;;;-5.29;73.15;99480.56;5067317;28;19928;-72
2023/11/29 09:27:06;;;;;;;;;;;;;;;-5.23;73.18;99481.69;5067487;28;19928;-72
2023/11/29 09:29:33;;;;;;;;;;;;;;;-5.12;73.25;99473.28;5062953;28;19928;-72
2023/11/29 09:31:59;;;;;;;;;;;;;;;-5.07;73.32;99468.22;5063232;28;20035;-72
2023/11/29 09:34:26;;;;;;;;;;;;;;;-5.05;73.42;99468.03;5064979;28;20383;-72
2023/11/29 09:36:54;;;;;;;;;;;;;;;-4.99;73.62;99469.97;5046284;28;19974;-73
2023/11/29 09:39:20;;;;;;;;;;;;;;;-4.95;73.37;99481.13;5067313;28;19934;-72
2023/11/29 09:41:46;;;;;;;;;;;;;;;-4.92;73.62;99470.06;5047244;28;19928;-72
2023/11/29 09:44:12;;;;;;;;;;;;;;;-4.89;73.53;99449.22;5064960;28;19928;-73
2023/11/29 09:46:38;;;;;;;;;;;;;;;-4.81;73.59;99466.13;5065707;28;20058;-74
2023/11/29 09:49:04;;;;;;;;;;;;;;;-4.76;73.45;99464.56;5048775;28;19928;-72
2023/11/29 09:51:32;;;;;;;;;;;;;;;-4.68;73.55;99468.16;5067260;28;19928;-76
2023/11/29 09:53:57;;;;;;;;;;;;;;;-4.59;73.40;99464.41;5064392;28;19928;-76
2023/11/29 09:56:23;;;;;;;;;;;;;;;-4.52;73.35;99464.50;5063950;28;19928;-76
2023/11/29 09:58:49;;;;;;;;;;;;;;;-4.45;73.36;99465.41;5047690;28;19928;-76
2023/11/29 10:01:16;;;;;;;;;;;;;;;-4.43;73.27;99461.53;5065031;28;20423;-76
2023/11/29 10:03:42;;;;;;;;;;;;;;;-4.42;73.04;99457.84;5064539;28;20395;-73
2023/11/29 10:06:08;;;;;;;;;;;;;;;-4.43;73.27;99464.22;5066727;28;19985;-76
2023/11/29 10:08:37;;;;;;;;;;;;;;;-4.42;73.49;99454.38;5063382;28;19967;-76
2023/11/29 10:11:04;;;;;;;;;;;;;;;-4.40;73.62;99455.00;5050295;28;19934;-76
2023/11/29 10:13:30;;;;;;;;;;;;;;;-4.37;73.98;99448.47;5065012;28;20494;-76
2023/11/29 10:15:56;;;;;;;;;;;;;;;-4.35;74.31;99444.59;5067710;28;19929;-76
2023/11/29 10:18:24;;;;;;;;;;;;;;;-4.33;74.47;99431.88;5062730;28;20211;-76
2023/11/29 10:20:51;;;;;;;;;;;;;;;-4.36;74.76;99436.78;5064160;28;20701;-75
2023/11/29 10:23:17;;;;;;;;;;;;;;;-4.41;75.12;99429.34;5065853;28;19928;-76
2023/11/29 10:25:44;;;;;;;;;;;;;;;-4.42;75.32;99427.69;5062936;28;19928;-76
2023/11/29 10:28:13;;;;;;;;;;;;;;;-4.39;75.47;99418.44;5064164;28;19974;-76
2023/11/29 10:30:40;;;;;;;;;;;;;;;-4.35;75.51;99417.09;5065615;28;19943;-76
2023/11/29 10:33:09;;;;;;;;;;;;;;;-4.29;75.56;99416.34;5045422;28;19982;-75
2023/11/29 10:35:36;;;;;;;;;;;;;;;-4.29;75.91;99424.34;5049297;28;19932;-76
2023/11/29 10:38:07;;;;;;;;;;;;;;;-4.25;75.57;99420.28;5065803;28;19940;-76
2023/11/29 10:40:33;;;;;;;;;;;;;;;-4.31;75.50;99415.69;5063152;28;19951;-76
2023/11/29 10:43:03;;;;;;;;;;;;;;;-4.35;75.84;99417.09;5045734;28;19928;-76
2023/11/29 10:45:35;;;;;;;;;;;;;;;-4.38;76.05;99418.28;5030416;28;19928;-76
2023/11/29 10:48:02;;;;;;;;;;;;;;;-4.41;76.22;99408.78;5067291;28;19928;-76
2023/11/29 10:50:29;;;;;;;;;;;;;;;-4.39;76.38;99405.09;5064754;28;19940;-76
2023/11/29 10:52:55;;;;;;;;;;;;;;;-4.31;76.33;99407.69;5068480;28;20217;-76
2023/11/29 10:55:22;;;;;;;;;;;;;;;-4.28;76.42;99391.28;5065638;28;20132;-76
2023/11/29 10:57:51;;;;;;;;;;;;;;;-4.22;76.67;99389.72;5065018;28;19954;-76
2023/11/29 11:00:19;;;;;;;;;;;;;;;-4.10;76.35;99392.72;5065876;28;20040;-75
2023/11/29 11:02:46;;;;;;;;;;;;;;;-4.07;76.30;99387.81;5063966;28;19928;-75
2023/11/29 11:05:15;;;;;;;;;;;;;;;-4.04;76.17;99375.94;5063543;28;19929;-76
2023/11/29 11:07:41;;;;;;;;;;;;;;;-4.08;76.26;99382.66;5066492;28;19928;-76
2023/11/29 11:10:09;;;;;;;;;;;;;;;-4.09;76.30;99387.19;5050117;28;20362;-76
2023/11/29 11:12:36;;;;;;;;;;;;;;;-4.07;76.14;99376.31;5036437;28;20462;-76
2023/11/29 11:15:04;;;;;;;;;;;;;;;-4.05;76.04;99382.31;5033375;28;19974;-76
2023/11/29 11:17:31;;;;;;;;;;;;;;;-4.01;76.35;99370.22;5068384;28;19982;-72
2023/11/29 11:20:03;;;;;;;;;;;;;;;-3.94;75.97;99379.09;5069134;28;20318;-73
2023/11/29 11:22:30;;;;;;;;;;;;;;;-3.93;75.67;99363.91;5049770;28;19967;-73
2023/11/29 11:24:58;;;;;;;;;;;;;;;-3.97;75.44;99366.13;5068384;28;19979;-72
2023/11/29 11:27:28;;;;;;;;;;;;;;;-4.04;75.77;99357.25;5046837;28;19928;-80
2023/11/29 11:29:55;;;;;;;;;;;;;;;-4.05;75.89;99361.75;5059100;28;19935;-74
2023/11/29 11:32:45;;;;;;;;;;;;;;;-4.01;75.92;99359.53;5051093;28;19939;-75
2023/11/29 11:35:21;;;;;;;;;;;;;;;-4.02;75.51;99358.69;5050272;28;20028;-77
2023/11/29 11:37:48;;;;;;;;;;;;;;;-4.04;75.73;99352.72;5069007;28;19932;-76
2023/11/29 11:40:14;;;;;;;;;;;;;;;-4.04;75.55;99343.91;5065794;28;19974;-75
2023/11/29 11:42:41;;;;;;;;;;;;;;;-4.06;75.73;99335.22;5068814;28;19928;-75
2023/11/29 11:45:07;;;;;;;;;;;;;;;-4.05;75.38;99339.56;5065530;28;19932;-76
2023/11/29 11:47:33;;;;;;;;;;;;;;;-4.05;75.43;99334.22;5065319;28;19937;-75
2023/11/29 11:50:01;;;;;;;;;;;;;;;-4.08;75.48;99335.44;5066907;28;19935;-75
2023/11/29 11:52:28;;;;;;;;;;;;;;;-4.07;75.39;99330.91;5068122;28;20399;-76
2023/11/29 11:54:54;;;;;;;;;;;;;;;-4.02;75.28;99334.66;5035178;28;19936;-76
2023/11/29 11:57:20;;;;;;;;;;;;;;;-4.01;75.13;99324.81;5068019;28;19928;-76
2023/11/29 11:59:46;;;;;;;;;;;;;;;-3.95;75.37;99321.38;5067125;28;20323;-76
2023/11/29 12:02:12;;;;;;;;;;;;;;;-3.92;74.88;99320.97;5047056;28;19928;-76
2023/11/29 12:04:38;;;;;;;;;;;;;;;-3.93;75.10;99321.19;5068393;28;19932;-76
2023/11/29 12:07:07;;;;;;;;;;;;;;;-3.93;75.00;99321.19;5069185;28;19935;-76
2023/11/29 12:09:33;;;;;;;;;;;;;;;-4.02;75.07;99304.47;5065673;28;19928;-75
2023/11/29 12:12:05;;;;;;;;;;;;;;;-3.90;75.21;99318.97;5059976;28;19936;-76
2023/11/29 12:14:31;;;;;;;;;;;;;;;-3.84;75.02;99320.00;5051470;28;19928;-76
2023/11/29 12:16:58;;;;;;;;;;;;;;;-3.78;74.91;99311.25;5045439;28;20482;-77
2023/11/29 12:19:23;;;;;;;;;;;;;;;-3.77;74.43;99312.06;5048530;28;19929;-76
2023/11/29 12:21:49;;;;;;;;;;;;;;;-3.81;74.49;99311.63;5043463;28;19933;-75
2023/11/29 12:24:17;;;;;;;;;;;;;;;-3.83;74.57;99320.84;5062685;28;19936;-74
2023/11/29 12:26:46;;;;;;;;;;;;;;;-3.86;74.52;99304.19;5062655;28;19928;-74
2023/11/29 12:29:12;;;;;;;;;;;;;;;-3.85;74.68;99299.66;5065887;28;20023;-74
2023/11/29 12:31:39;;;;;;;;;;;;;;;-3.80;74.45;99299.09;5063917;28;19986;-74
2023/11/29 12:34:05;;;;;;;;;;;;;;;-3.80;74.37;99285.72;5049314;28;19928;-76
2023/11/29 12:36:31;;;;;;;;;;;;;;;-3.79;74.26;99292.72;5066188;28;19928;-74
2023/11/29 12:38:59;;;;;;;;;;;;;;;-3.81;74.10;99284.06;5067177;28;19932;-74
2023/11/29 12:41:26;;;;;;;;;;;;;;;-3.82;74.27;99293.13;5065729;28;19934;-74
2023/11/29 12:43:52;;;;;;;;;;;;;;;-3.79;74.40;99293.56;5066613;28;19928;-74
2023/11/29 12:46:20;;;;;;;;;;;;;;;-3.76;74.14;99281.63;5020597;28;19943;-74